Louisburg, NC (27549)

11:59 AM EST on December 10, 2016 (GMT -0500)
Huntsburg and Royal | | Change Station

Elev 302 ft 36.04 °N, 78.35 °W | Updated 7 seconds ago

Clear
Clear
35.4 °F
Feels Like 31 °F
N
5.6
Wind Variable Wind from West
Gusts 7.4 mph

Today
High -- | Low -- °F
--% Chance of Precip.
Yesterday
High -- | Low -- °F
Precip. -- in
Pressure 30.55 in
Visibility 10.0 miles
Clouds Clear
Windchill 31 °F
Dew Point -1 °F
Humidity 21%
Rainfall 0.00 in
Snow Depth Not available.
7:13 AM 4:58 PM
Waxing Gibbous, 85% visible
METAR KLHZ 101645Z AUTO 23005KT 10SM CLR 01/M10 A3055 RMK AO2
Pressure 30.55 in
Visibility 10.0 miles
Clouds Clear
Windchill 31 °F
Dew Point -1 °F
Humidity 21%
Rainfall 0.00 in
Snow Depth Not available.
7:13 AM 4:58 PM
Waxing Gibbous, 85% visible
METAR KLHZ 101645Z AUTO 23005KT 10SM CLR 01/M10 A3055 RMK AO2

10-Day Weather Forecast

Almanac

Astronomy

Dec. 10, 2016 Rise Set
Actual Time
Civil Twilight
Nautical Twilight
Astronomical Twilight
Moon
Length of Visible Light
Length of Day
Tomorrow will be .
, % of the Moon is Illuminated

Today's Extremes

State Highs State Lows

Community

WunderPhotos

Upload Photos

1,956,569 photos uploaded!

WunderBlog® & News

Nearby

Air Quality

  Air Quality AQ Index Pollutant
Not available.

Snow Depth

Station Depth Elevation

Earthquake Activity

City Distance Mag. Time & Date
Minimum magnitude displayed is 2.5.

Coastal Water Temperatures

Place Temperature

Stations

Nearby Weather Stations

Station Location Temp. Windchill Dew Point Humidity Wind Precip. Elev Updated Type
                   

Watches & Warnings

There are currently no watches in effect.